createdAt,value
2018-08-16T00:00:16.565Z,5.90
2018-08-16T00:02:45.284Z,5.07
2018-08-16T00:05:13.554Z,5.30
2018-08-16T00:07:41.692Z,5.50
2018-08-16T00:10:11.860Z,4.30
2018-08-16T00:12:40.128Z,4.90
2018-08-16T00:15:08.362Z,5.17
2018-08-16T00:17:36.386Z,5.40
2018-08-16T00:20:04.681Z,4.07
2018-08-16T00:22:32.646Z,4.40
2018-08-16T00:25:00.620Z,5.67
2018-08-16T00:27:28.713Z,4.60
2018-08-16T00:29:56.802Z,4.50
2018-08-16T00:32:25.110Z,4.17
2018-08-16T00:34:53.167Z,4.90
2018-08-16T00:37:21.390Z,3.77
2018-08-16T00:39:49.831Z,3.53
2018-08-16T00:42:18.050Z,4.63
2018-08-16T00:44:46.096Z,3.63
2018-08-16T00:47:14.167Z,4.20
2018-08-16T00:49:42.150Z,4.40
2018-08-16T00:52:10.081Z,4.10
2018-08-16T00:54:38.013Z,4.67
2018-08-16T00:57:05.953Z,5.57
2018-08-16T00:59:33.904Z,4.43
2018-08-16T01:02:01.880Z,4.90
2018-08-16T01:04:29.872Z,4.60
2018-08-16T01:06:58.409Z,4.40
2018-08-16T01:09:28.478Z,4.00
2018-08-16T01:11:57.292Z,4.00
2018-08-16T01:14:25.942Z,4.50
2018-08-16T01:16:54.200Z,3.73
2018-08-16T01:19:22.416Z,4.07
2018-08-16T01:21:50.646Z,4.30
2018-08-16T01:24:18.896Z,4.13
2018-08-16T01:26:47.075Z,4.40
2018-08-16T01:29:15.251Z,3.53
2018-08-16T01:31:43.217Z,3.83
2018-08-16T01:34:11.147Z,4.27
2018-08-16T01:36:39.112Z,4.40
2018-08-16T01:39:07.752Z,4.30
2018-08-16T01:41:35.904Z,3.67
2018-08-16T01:44:03.907Z,3.57
2018-08-16T01:46:31.807Z,3.40
2018-08-16T01:48:59.950Z,3.93
2018-08-16T01:51:28.040Z,3.93
2018-08-16T01:53:56.036Z,3.70
2018-08-16T01:56:24.082Z,4.37
2018-08-16T01:58:52.241Z,4.90
2018-08-16T02:01:20.425Z,4.47
2018-08-16T02:03:48.604Z,3.70
2018-08-16T02:06:16.585Z,3.83
2018-08-16T02:08:44.651Z,3.67
2018-08-16T02:11:12.600Z,3.80
2018-08-16T02:13:40.596Z,5.10
2018-08-16T02:16:08.560Z,4.50
2018-08-16T02:18:36.491Z,4.00
2018-08-16T02:21:04.415Z,3.40
2018-08-16T02:23:32.355Z,4.53
2018-08-16T02:26:00.332Z,3.93
2018-08-16T02:28:28.371Z,4.20
2018-08-16T02:30:56.402Z,4.93
2018-08-16T02:33:24.452Z,4.27
2018-08-16T02:35:52.560Z,4.63
2018-08-16T02:38:20.663Z,5.13
2018-08-16T02:40:48.658Z,5.40
2018-08-16T02:43:16.735Z,4.20
2018-08-16T02:45:44.725Z,4.80
2018-08-16T02:48:12.680Z,5.03
2018-08-16T02:50:40.593Z,5.20
2018-08-16T02:53:08.508Z,4.53
2018-08-16T02:55:36.405Z,4.43
2018-08-16T02:58:04.374Z,5.10
2018-08-16T03:00:32.318Z,4.30
2018-08-16T03:03:00.232Z,5.20
2018-08-16T03:05:28.219Z,9.57
2018-08-16T03:07:56.306Z,8.53
2018-08-16T03:10:24.321Z,5.47
2018-08-16T03:12:52.412Z,4.73
2018-08-16T03:15:20.629Z,4.87
2018-08-16T03:17:48.739Z,6.00
2018-08-16T03:20:16.702Z,4.20
2018-08-16T03:22:44.742Z,4.37
2018-08-16T03:25:12.825Z,4.60
2018-08-16T03:27:40.748Z,4.30
2018-08-16T03:30:08.708Z,3.90
2018-08-16T03:32:36.634Z,3.63
2018-08-16T03:35:04.686Z,4.43
2018-08-16T03:37:32.683Z,4.20
2018-08-16T03:40:00.624Z,4.20
2018-08-16T03:42:29.423Z,4.20
2018-08-16T03:44:57.432Z,9.10
2018-08-16T03:47:25.389Z,4.40
2018-08-16T03:49:53.336Z,4.40
2018-08-16T03:52:21.400Z,4.90
2018-08-16T03:54:49.502Z,4.00
2018-08-16T03:57:17.466Z,4.33
2018-08-16T03:59:45.416Z,4.80
2018-08-16T04:02:13.426Z,4.20
2018-08-16T04:04:41.471Z,4.83
2018-08-16T04:07:09.407Z,11.60
2018-08-16T04:09:37.340Z,5.10
2018-08-16T04:12:05.909Z,4.47
2018-08-16T04:14:33.867Z,5.37
2018-08-16T04:17:02.002Z,5.47
2018-08-16T04:19:29.945Z,4.60
2018-08-16T04:21:57.973Z,4.40
2018-08-16T04:24:25.914Z,5.40
2018-08-16T04:26:53.924Z,4.20
2018-08-16T04:29:22.050Z,4.57
2018-08-16T04:31:50.067Z,5.20
2018-08-16T04:34:18.016Z,3.70
2018-08-16T04:36:46.067Z,5.23
2018-08-16T04:39:14.037Z,4.53
2018-08-16T04:41:42.025Z,4.77
2018-08-16T04:44:09.959Z,4.50
2018-08-16T04:46:37.962Z,8.73
2018-08-16T04:49:05.878Z,4.90
2018-08-16T04:51:33.839Z,4.90
2018-08-16T04:54:01.777Z,5.00
2018-08-16T04:56:29.689Z,4.57
2018-08-16T04:58:57.708Z,4.13
2018-08-16T05:01:25.688Z,4.67
2018-08-16T05:03:53.745Z,3.90
2018-08-16T05:06:21.769Z,4.80
2018-08-16T05:08:49.853Z,4.63
2018-08-16T05:11:17.829Z,4.10
2018-08-16T05:13:45.854Z,3.67
2018-08-16T05:16:13.894Z,3.97
2018-08-16T05:18:41.908Z,4.73
2018-08-16T05:21:09.881Z,5.20
2018-08-16T05:23:37.827Z,4.50
2018-08-16T05:26:05.789Z,4.97
2018-08-16T05:28:33.755Z,3.37
2018-08-16T05:31:01.745Z,5.30
2018-08-16T05:33:29.764Z,4.30
2018-08-16T05:35:57.958Z,4.70
2018-08-16T05:38:26.009Z,4.50
2018-08-16T05:40:54.060Z,3.80
2018-08-16T05:43:22.349Z,4.67
2018-08-16T05:45:50.464Z,4.60
2018-08-16T05:48:19.757Z,4.37
2018-08-16T05:50:48.062Z,4.30
2018-08-16T05:53:16.733Z,5.00
2018-08-16T05:55:44.676Z,5.60
2018-08-16T05:58:12.637Z,5.50
2018-08-16T06:00:40.647Z,4.50
2018-08-16T06:03:08.752Z,6.13
2018-08-16T06:05:36.793Z,5.37
2018-08-16T06:08:04.729Z,4.97
2018-08-16T06:10:32.664Z,5.00
2018-08-16T06:13:00.749Z,4.80
2018-08-16T06:15:28.986Z,5.10
2018-08-16T06:17:57.043Z,4.87
2018-08-16T06:20:25.160Z,4.50
2018-08-16T06:23:00.533Z,5.13
2018-08-16T06:25:28.968Z,4.50
2018-08-16T06:27:57.155Z,5.80
2018-08-16T06:30:25.558Z,4.50
2018-08-16T06:32:53.671Z,4.23
2018-08-16T06:35:21.873Z,4.07
2018-08-16T06:37:50.068Z,4.43
2018-08-16T06:40:18.315Z,4.40
2018-08-16T06:42:47.327Z,4.93
2018-08-16T06:45:15.391Z,4.20
2018-08-16T06:47:43.396Z,4.13
2018-08-16T06:50:11.379Z,3.03
2018-08-16T06:52:39.415Z,3.43
2018-08-16T06:55:07.715Z,3.10
2018-08-16T06:57:35.633Z,3.33
2018-08-16T07:00:03.596Z,2.97
2018-08-16T07:02:31.761Z,3.80
2018-08-16T07:04:59.763Z,3.70
2018-08-16T07:07:27.801Z,4.10
2018-08-16T07:09:55.896Z,3.57
2018-08-16T07:12:24.149Z,3.47
2018-08-16T07:14:52.440Z,4.40
2018-08-16T07:17:20.792Z,4.30
2018-08-16T07:19:49.096Z,4.43
2018-08-16T07:22:17.182Z,4.50
2018-08-16T07:24:45.347Z,3.90
2018-08-16T07:27:13.498Z,2.93
2018-08-16T07:29:41.444Z,3.00
2018-08-16T07:32:10.336Z,4.30
2018-08-16T07:34:38.284Z,3.43
2018-08-16T07:37:06.216Z,3.90
2018-08-16T07:39:34.225Z,4.00
2018-08-16T07:42:02.277Z,3.80
2018-08-16T07:44:30.241Z,3.93
2018-08-16T07:46:58.357Z,3.70
2018-08-16T07:49:26.563Z,3.30
2018-08-16T07:51:54.677Z,2.87
2018-08-16T07:54:22.896Z,4.37
2018-08-16T07:56:51.235Z,3.10
2018-08-16T07:59:19.331Z,4.80
2018-08-16T08:01:47.315Z,3.73
2018-08-16T08:04:15.297Z,3.00
2018-08-16T08:06:43.260Z,3.10
2018-08-16T08:09:11.360Z,5.33
2018-08-16T08:11:39.091Z,5.30
2018-08-16T08:14:07.456Z,3.30
2018-08-16T08:16:35.432Z,3.10
2018-08-16T08:19:03.424Z,2.80
2018-08-16T08:21:32.112Z,3.00
2018-08-16T08:24:00.133Z,2.93
2018-08-16T08:26:28.277Z,3.47
2018-08-16T08:28:56.343Z,2.80
2018-08-16T08:31:24.594Z,3.60
2018-08-16T08:33:52.942Z,3.33
2018-08-16T08:36:26.489Z,3.87
2018-08-16T08:38:54.615Z,3.13
2018-08-16T08:41:22.618Z,3.30
2018-08-16T08:43:56.134Z,3.13
2018-08-16T08:46:24.197Z,3.33
2018-08-16T08:48:52.404Z,3.43
2018-08-16T08:51:20.723Z,3.33
2018-08-16T08:54:04.137Z,3.17
2018-08-16T08:56:37.811Z,3.27
2018-08-16T08:59:05.760Z,3.30
2018-08-16T09:01:33.718Z,3.50
2018-08-16T09:04:01.758Z,2.80
2018-08-16T09:06:29.803Z,3.10
2018-08-16T09:08:57.837Z,3.07
2018-08-16T09:11:31.388Z,2.43
2018-08-16T09:16:07.798Z,3.07
2018-08-16T09:18:35.763Z,3.30
2018-08-16T09:21:03.796Z,3.10
2018-08-16T09:23:31.780Z,2.73
2018-08-16T09:25:59.809Z,3.07
2018-08-16T09:28:27.805Z,3.07
2018-08-16T09:31:01.353Z,2.80
2018-08-16T09:33:34.793Z,3.43
2018-08-16T09:36:02.774Z,2.93
2018-08-16T09:38:30.811Z,3.07
2018-08-16T09:40:58.916Z,3.20
2018-08-16T09:43:27.192Z,3.30
2018-08-16T09:47:15.677Z,2.70
2018-08-16T09:49:44.942Z,3.77
2018-08-16T09:52:13.603Z,3.10
2018-08-16T09:54:41.543Z,3.10
2018-08-16T09:57:10.569Z,3.17
2018-08-16T09:59:39.100Z,2.60
2018-08-16T10:02:07.739Z,2.90
2018-08-16T10:04:35.689Z,2.87
2018-08-16T10:07:03.694Z,3.10
2018-08-16T10:09:32.156Z,3.40
2018-08-16T10:12:01.268Z,2.73
2018-08-16T10:14:29.243Z,2.77
2018-08-16T10:16:57.266Z,2.80
2018-08-16T10:19:25.857Z,2.80
2018-08-16T10:21:54.206Z,2.70
2018-08-16T10:24:22.599Z,2.60
2018-08-16T10:26:51.363Z,3.00
2018-08-16T10:29:19.414Z,4.27
2018-08-16T10:31:47.612Z,3.30
2018-08-16T10:34:15.711Z,2.90
2018-08-16T10:36:43.676Z,2.60
2018-08-16T10:39:12.638Z,3.07
2018-08-16T10:41:40.617Z,2.77
2018-08-16T10:44:08.593Z,3.13
2018-08-16T10:46:36.567Z,3.23
2018-08-16T10:49:04.543Z,3.07
2018-08-16T10:51:32.524Z,2.90
2018-08-16T10:54:00.508Z,2.33
2018-08-16T10:56:28.546Z,2.63
2018-08-16T10:58:56.529Z,2.67
2018-08-16T11:01:24.651Z,2.53
2018-08-16T11:03:52.782Z,2.70
2018-08-16T11:06:20.971Z,3.70
2018-08-16T11:08:49.008Z,3.13
2018-08-16T11:11:17.036Z,3.30
2018-08-16T11:13:45.034Z,3.00
2018-08-16T11:16:13.030Z,2.43
2018-08-16T11:18:41.072Z,3.30
2018-08-16T11:21:08.971Z,3.30
2018-08-16T11:23:36.898Z,2.67
2018-08-16T11:26:04.924Z,2.90
2018-08-16T11:28:32.845Z,2.70
2018-08-16T11:31:01.374Z,2.70
2018-08-16T11:33:29.380Z,2.80
2018-08-16T11:35:57.425Z,3.33
2018-08-16T11:38:25.448Z,2.60
2018-08-16T11:40:53.565Z,2.77
2018-08-16T11:43:21.723Z,3.07
2018-08-16T11:45:49.833Z,3.30
2018-08-16T11:48:17.824Z,3.60
2018-08-16T11:50:45.876Z,3.53
2018-08-16T11:53:13.932Z,3.23
2018-08-16T11:55:41.877Z,3.13
2018-08-16T11:58:09.799Z,3.57
2018-08-16T12:00:37.731Z,2.73
2018-08-16T12:03:05.823Z,2.53
2018-08-16T12:05:33.761Z,3.40
2018-08-16T12:08:01.751Z,3.63
2018-08-16T12:10:29.777Z,3.53
2018-08-16T12:12:58.434Z,2.73
2018-08-16T12:15:26.536Z,3.57
2018-08-16T12:17:54.545Z,3.07
2018-08-16T12:20:22.557Z,3.17
2018-08-16T12:22:50.704Z,2.50
2018-08-16T12:25:18.729Z,3.13
2018-08-16T12:27:46.754Z,2.93
2018-08-16T12:30:14.719Z,2.87
2018-08-16T12:32:42.727Z,2.57
2018-08-16T12:35:10.794Z,2.80
2018-08-16T12:37:38.774Z,2.90
2018-08-16T12:40:06.888Z,3.30
2018-08-16T12:42:34.941Z,3.37
2018-08-16T12:45:02.979Z,2.47
2018-08-16T12:47:31.187Z,2.37
2018-08-16T12:49:59.167Z,3.03
2018-08-16T12:52:27.192Z,3.33
2018-08-16T12:54:55.248Z,3.07
2018-08-16T12:57:23.329Z,4.10
2018-08-16T12:59:51.582Z,2.40
2018-08-16T13:02:19.995Z,2.50
2018-08-16T13:04:48.004Z,3.30
2018-08-16T13:07:16.044Z,3.27
2018-08-16T13:09:44.056Z,3.10
2018-08-16T13:12:12.043Z,2.70
2018-08-16T13:14:39.990Z,3.07
2018-08-16T13:17:07.924Z,3.00
2018-08-16T13:19:35.867Z,2.57
2018-08-16T13:22:03.860Z,2.63
2018-08-16T13:24:31.809Z,2.80
2018-08-16T13:26:59.740Z,2.70
2018-08-16T13:29:27.728Z,2.53
2018-08-16T13:31:55.750Z,3.20
2018-08-16T13:34:23.913Z,2.60
2018-08-16T13:36:52.029Z,2.40
2018-08-16T13:39:20.376Z,3.53
2018-08-16T13:41:48.440Z,3.37
2018-08-16T13:44:16.457Z,2.40
2018-08-16T13:46:44.408Z,2.90
2018-08-16T13:49:12.395Z,2.40
2018-08-16T13:51:40.421Z,2.90
2018-08-16T13:54:08.372Z,2.70
2018-08-16T13:56:36.342Z,2.00
2018-08-16T13:59:04.258Z,2.60
2018-08-16T14:01:32.194Z,2.37
2018-08-16T14:04:00.153Z,2.93
2018-08-16T14:06:28.193Z,2.77
2018-08-16T14:08:56.143Z,3.10
2018-08-16T14:11:24.205Z,2.50
2018-08-16T14:13:52.167Z,2.40
2018-08-16T14:16:20.251Z,1.80
2018-08-16T14:18:48.246Z,3.00
2018-08-16T14:21:16.220Z,3.20
2018-08-16T14:23:44.280Z,2.77
2018-08-16T14:26:12.260Z,2.90
2018-08-16T14:28:40.205Z,3.33
2018-08-16T14:31:08.156Z,2.90
2018-08-16T14:33:36.131Z,2.40
2018-08-16T14:36:04.097Z,2.37
2018-08-16T14:38:32.096Z,2.53
2018-08-16T14:41:00.040Z,3.57
2018-08-16T14:43:28.193Z,2.40
2018-08-16T14:45:56.249Z,2.60
2018-08-16T14:48:24.337Z,2.13
2018-08-16T14:50:52.369Z,2.63
2018-08-16T14:53:20.380Z,2.30
2018-08-16T14:55:48.320Z,2.50
2018-08-16T14:58:17.190Z,2.20
2018-08-16T15:00:45.229Z,2.77
2018-08-16T15:03:13.245Z,2.77
2018-08-16T15:05:41.186Z,2.17
2018-08-16T15:08:09.122Z,2.37
2018-08-16T15:10:37.096Z,2.30
2018-08-16T15:13:05.096Z,2.50
2018-08-16T15:15:33.025Z,2.53
2018-08-16T15:18:00.996Z,2.40
2018-08-16T15:20:29.148Z,2.60
2018-08-16T15:22:57.223Z,3.07
2018-08-16T15:25:25.116Z,3.17
2018-08-16T15:27:53.110Z,2.53
2018-08-16T15:30:21.198Z,2.67
2018-08-16T15:32:49.186Z,2.87
2018-08-16T15:35:17.533Z,2.60
2018-08-16T15:37:45.560Z,3.13
2018-08-16T15:40:13.573Z,2.53
2018-08-16T15:42:41.726Z,4.07
2018-08-16T15:45:09.682Z,2.60
2018-08-16T15:47:37.615Z,1.93
2018-08-16T15:50:05.646Z,2.87
2018-08-16T15:52:33.635Z,2.70
2018-08-16T15:55:02.203Z,2.57
2018-08-16T15:57:30.301Z,2.53
2018-08-16T15:59:58.469Z,2.27
2018-08-16T16:02:26.647Z,2.33
2018-08-16T16:04:54.874Z,2.40
2018-08-16T16:07:23.172Z,2.97
2018-08-16T16:09:51.525Z,2.30
2018-08-16T16:12:19.680Z,3.20
2018-08-16T16:14:47.774Z,3.57
2018-08-16T16:17:15.992Z,3.00
2018-08-16T16:19:44.025Z,2.60
2018-08-16T16:22:12.001Z,2.50
2018-08-16T16:24:40.051Z,2.23
2018-08-16T16:27:07.921Z,3.17
2018-08-16T16:29:36.233Z,3.30
2018-08-16T16:32:04.157Z,2.60
2018-08-16T16:34:32.078Z,3.27
2018-08-16T16:37:00.065Z,2.80
2018-08-16T16:39:28.149Z,2.87
2018-08-16T16:41:56.236Z,3.10
2018-08-16T16:44:24.364Z,2.60
2018-08-16T16:46:52.671Z,3.57
2018-08-16T16:49:22.688Z,3.07
2018-08-16T16:51:51.314Z,2.73
2018-08-16T16:54:20.011Z,3.57
2018-08-16T16:56:49.180Z,3.00
2018-08-16T16:59:17.291Z,3.03
2018-08-16T17:01:45.363Z,3.17
2018-08-16T17:04:13.564Z,3.80
2018-08-16T17:06:41.440Z,2.90
2018-08-16T17:09:11.213Z,3.00
2018-08-16T17:11:39.189Z,2.93
2018-08-16T17:14:07.179Z,2.90
2018-08-16T17:16:35.787Z,3.07
2018-08-16T17:19:03.786Z,3.03
2018-08-16T17:21:31.712Z,3.70
2018-08-16T17:23:59.722Z,2.80
2018-08-16T17:26:27.884Z,3.33
2018-08-16T17:28:55.869Z,3.87
2018-08-16T17:31:23.975Z,3.17
2018-08-16T17:33:53.016Z,2.90
2018-08-16T17:36:21.161Z,3.43
2018-08-16T17:38:49.178Z,3.37
2018-08-16T17:41:17.201Z,5.00
2018-08-16T17:43:45.283Z,3.10
2018-08-16T17:46:13.492Z,3.63
2018-08-16T17:48:41.422Z,3.70
2018-08-16T17:51:10.348Z,3.70
2018-08-16T17:53:38.274Z,3.50
2018-08-16T17:56:06.219Z,3.60
2018-08-16T17:58:34.236Z,4.43
2018-08-16T18:01:02.280Z,3.33
2018-08-16T18:03:30.327Z,3.97
2018-08-16T18:05:58.576Z,4.17
2018-08-16T18:08:26.657Z,4.27
2018-08-16T18:10:54.679Z,4.20
2018-08-16T18:13:22.935Z,4.97
2018-08-16T18:15:51.149Z,4.80
2018-08-16T18:18:19.248Z,4.30
2018-08-16T18:20:47.360Z,5.33
2018-08-16T18:23:16.171Z,4.17
2018-08-16T18:25:44.132Z,5.13
2018-08-16T18:28:12.061Z,5.03
2018-08-16T18:30:39.994Z,4.47
2018-08-16T18:33:07.941Z,4.60
2018-08-16T18:35:36.696Z,4.30
2018-08-16T18:38:04.720Z,4.00
2018-08-16T18:40:32.852Z,4.27
2018-08-16T18:43:01.183Z,4.90
2018-08-16T18:45:29.211Z,5.17
2018-08-16T18:47:57.449Z,4.80
2018-08-16T18:50:25.570Z,4.90
2018-08-16T18:52:53.724Z,4.90
2018-08-16T18:55:22.163Z,6.00
2018-08-16T18:57:50.625Z,4.23
2018-08-16T19:00:18.757Z,4.80
2018-08-16T19:02:46.805Z,5.23
2018-08-16T19:05:14.967Z,7.80
2018-08-16T19:07:42.982Z,4.73
2018-08-16T19:10:11.211Z,4.73
2018-08-16T19:12:39.124Z,5.60
2018-08-16T19:17:42.198Z,5.60
2018-08-16T19:20:11.034Z,5.33
2018-08-16T19:22:38.972Z,5.40
2018-08-16T19:25:07.217Z,5.37
2018-08-16T19:27:35.193Z,5.63
2018-08-16T19:30:03.215Z,4.80
2018-08-16T19:32:31.129Z,4.93
2018-08-16T19:34:59.247Z,5.10
2018-08-16T19:37:27.355Z,6.17
2018-08-16T19:39:55.862Z,5.60
2018-08-16T19:42:24.489Z,4.77
2018-08-16T19:44:53.567Z,5.60
2018-08-16T19:47:22.719Z,6.77
2018-08-16T19:49:52.086Z,4.60
2018-08-16T19:52:20.866Z,5.00
2018-08-16T19:54:49.010Z,4.20
2018-08-16T19:57:16.943Z,4.43
2018-08-16T19:59:44.870Z,4.70
2018-08-16T20:02:13.923Z,4.93
2018-08-16T20:04:41.984Z,5.07
2018-08-16T20:07:10.052Z,5.30
2018-08-16T20:09:37.932Z,5.20
2018-08-16T20:12:06.097Z,4.07
2018-08-16T20:14:34.043Z,4.73
2018-08-16T20:17:01.990Z,4.23
2018-08-16T20:19:30.185Z,4.07
2018-08-16T20:21:58.167Z,4.40
2018-08-16T20:24:26.364Z,4.73
2018-08-16T20:26:54.598Z,3.90
2018-08-16T20:29:22.743Z,4.10
2018-08-16T20:31:50.877Z,4.30
2018-08-16T20:34:19.441Z,3.90
2018-08-16T20:36:47.397Z,4.90
2018-08-16T20:39:17.032Z,4.20
2018-08-16T20:41:45.555Z,4.80
2018-08-16T20:44:14.942Z,4.07
2018-08-16T20:46:42.888Z,4.27
2018-08-16T20:49:10.841Z,4.67
2018-08-16T20:51:39.515Z,3.80
2018-08-16T20:54:07.465Z,4.40
2018-08-16T20:56:35.932Z,3.70
2018-08-16T20:59:03.884Z,4.70
2018-08-16T21:01:31.829Z,3.50
2018-08-16T21:03:59.937Z,4.90
2018-08-16T21:06:28.062Z,3.80
2018-08-16T21:08:56.124Z,4.50
2018-08-16T21:11:24.445Z,3.80
2018-08-16T21:13:52.925Z,4.00
2018-08-16T21:16:21.115Z,3.70
2018-08-16T21:18:49.263Z,3.93
2018-08-16T21:21:17.451Z,4.23
2018-08-16T21:23:45.535Z,4.10
2018-08-16T21:26:13.497Z,4.80
2018-08-16T21:28:41.411Z,3.97
2018-08-16T21:31:09.346Z,4.50
2018-08-16T21:33:37.263Z,4.40
2018-08-16T21:36:05.219Z,4.20
2018-08-16T21:38:33.149Z,4.80
2018-08-16T21:41:01.180Z,4.93
2018-08-16T21:43:29.259Z,4.60
2018-08-16T21:45:57.508Z,3.97
2018-08-16T21:48:25.642Z,4.83
2018-08-16T21:50:53.828Z,4.60
2018-08-16T21:53:22.169Z,3.47
2018-08-16T21:55:51.042Z,4.20
2018-08-16T21:58:20.180Z,4.60
2018-08-16T22:00:52.532Z,4.20
2018-08-16T22:03:22.089Z,4.57
2018-08-16T22:06:01.269Z,3.90
2018-08-16T22:08:45.966Z,4.70
2018-08-16T22:11:13.937Z,4.73
2018-08-16T22:13:41.965Z,5.10
2018-08-16T22:16:10.043Z,4.20
2018-08-16T22:18:38.597Z,5.00
2018-08-16T22:21:06.621Z,5.00
2018-08-16T22:23:34.569Z,5.10
2018-08-16T22:26:02.524Z,4.30
2018-08-16T22:28:30.648Z,5.00
2018-08-16T22:30:59.220Z,4.57
2018-08-16T22:33:27.396Z,5.10
2018-08-16T22:35:55.779Z,4.30
2018-08-16T22:38:24.079Z,5.20
2018-08-16T22:40:53.244Z,5.43
2018-08-16T22:43:21.595Z,4.73
2018-08-16T22:45:50.061Z,5.30
2018-08-16T22:48:18.141Z,5.87
2018-08-16T22:50:46.364Z,5.30
2018-08-16T22:53:14.483Z,5.70
2018-08-16T22:55:43.463Z,5.63
2018-08-16T22:58:11.384Z,6.13
2018-08-16T23:00:39.348Z,5.47
2018-08-16T23:03:07.331Z,5.80
2018-08-16T23:05:35.253Z,5.07
2018-08-16T23:08:03.189Z,5.70
2018-08-16T23:10:31.267Z,5.90
2018-08-16T23:12:59.524Z,5.40
2018-08-16T23:15:27.615Z,5.97
2018-08-16T23:17:55.759Z,5.97
2018-08-16T23:20:24.020Z,6.10
2018-08-16T23:22:52.268Z,5.70
2018-08-16T23:25:21.478Z,5.80
2018-08-16T23:27:49.810Z,4.80
2018-08-16T23:30:17.953Z,5.13
2018-08-16T23:32:46.142Z,5.00
2018-08-16T23:35:14.293Z,4.93
2018-08-16T23:37:42.233Z,5.20
2018-08-16T23:40:11.084Z,4.93
2018-08-16T23:42:39.197Z,5.07
2018-08-16T23:45:07.473Z,5.60
2018-08-16T23:47:35.442Z,5.50
2018-08-16T23:50:03.625Z,4.37
2018-08-16T23:52:31.770Z,5.00
2018-08-16T23:55:00.112Z,5.47
2018-08-16T23:57:28.184Z,5.00
2018-08-16T23:59:56.465Z,5.27
